Time;durP1;ratioP1;P1;durP2;ratioP2;P2;SDS_P1;SDS_P2;PMS_P1;PMS_P2;Temp;Humidity;BMP_temperature;BMP_pressure;BME280_temperature;BME280_humidity;BME280_pressure;Samples;Min_cycle;Max_cycle;Signal;HPM_P1;HPM_P2
2022/03/13 00:01:03;;;;;;;0.60;0.50;;;11.50;99.90;11.30;101199.00;;;;5098258;28;20631;-70
2022/03/13 00:03:32;;;;;;;1.77;0.90;;;11.60;99.90;11.20;101185.00;;;;5115184;28;20226;-70
2022/03/13 00:05:59;;;;;;;1.20;1.03;;;11.60;99.90;11.20;101192.00;;;;5098616;28;20191;-70
2022/03/13 00:08:31;;;;;;;1.87;0.80;;;11.50;99.90;11.20;101188.00;;;;5115281;28;20271;-71
2022/03/13 00:11:09;;;;;;;0.40;0.40;;;11.50;99.90;11.50;101188.00;;;;5114685;28;20172;-71
2022/03/13 00:13:51;;;;;;;2.00;0.60;;;11.70;99.90;11.00;101187.00;;;;5114999;28;20203;-71
2022/03/13 00:16:23;;;;;;;0.80;0.80;;;11.60;99.90;10.80;101163.00;;;;5098273;28;20561;-71
2022/03/13 00:18:53;;;;;;;0.70;0.70;;;11.40;99.90;10.80;101174.00;;;;5115030;28;20189;-70
2022/03/13 00:21:20;;;;;;;0.60;0.60;;;11.40;99.90;10.90;101173.00;;;;5114966;28;20184;-71
2022/03/13 00:23:47;;;;;;;1.60;1.27;;;11.30;99.90;11.00;101145.00;;;;5097684;28;20185;-71
2022/03/13 00:26:18;;;;;;;0.83;0.83;;;11.40;99.90;11.00;101179.00;;;;5097711;28;20184;-71
2022/03/13 00:28:45;;;;;;;0.27;0.27;;;11.50;99.90;11.00;101169.00;;;;5115031;28;20165;-71
2022/03/13 00:31:15;;;;;;;0.87;0.87;;;11.40;99.90;10.80;101159.00;;;;5097627;28;20216;-71
2022/03/13 00:33:43;;;;;;;0.67;0.67;;;11.30;99.90;10.70;101151.00;;;;5114628;28;20197;-70
2022/03/13 00:36:10;;;;;;;0.93;0.93;;;11.20;99.90;10.80;101116.00;;;;5097423;28;20252;-70
2022/03/13 00:38:35;;;;;;;0.20;0.20;;;11.20;99.90;10.60;101150.00;;;;5096892;28;20211;-70
2022/03/13 00:41:01;;;;;;;1.53;1.20;;;11.20;99.90;10.60;101138.00;;;;5097348;28;20223;-70
2022/03/13 00:43:31;;;;;;;0.93;0.80;;;11.10;99.90;10.50;101135.00;;;;5097061;28;20188;-70
2022/03/13 00:45:59;;;;;;;1.07;0.97;;;11.10;99.90;10.60;101143.00;;;;5115498;28;20218;-70
2022/03/13 00:48:27;;;;;;;0.20;0.20;;;11.10;99.90;10.70;101145.00;;;;5114309;28;20192;-71
2022/03/13 00:50:56;;;;;;;0.60;0.60;;;11.10;99.90;10.60;101141.00;;;;5097322;28;20627;-71
2022/03/13 00:53:21;;;;;;;0.63;0.63;;;11.20;99.90;10.80;101138.00;;;;5114089;28;20233;-70
2022/03/13 00:55:50;;;;;;;0.70;0.63;;;11.20;99.90;10.80;101140.00;;;;5095870;28;20585;-71
2022/03/13 00:58:16;;;;;;;0.30;0.30;;;11.30;99.90;10.80;101128.00;;;;5097168;28;20223;-71
2022/03/13 01:00:42;;;;;;;0.93;0.93;;;11.30;99.90;10.70;101120.00;;;;5113895;28;20693;-70
2022/03/13 01:03:37;;;;;;;0.77;0.77;;;11.20;99.90;10.80;101119.00;;;;5114006;28;20196;-70
2022/03/13 01:06:08;;;;;;;1.20;0.77;;;11.20;99.90;10.80;101134.00;;;;5102828;28;20708;-70
2022/03/13 01:08:36;;;;;;;1.17;1.07;;;11.30;99.90;10.60;101136.00;;;;5096790;28;20180;-70
2022/03/13 01:11:08;;;;;;;4.33;0.77;;;11.20;99.90;10.70;101131.00;;;;5113790;28;20650;-70
2022/03/13 01:13:37;;;;;;;0.40;0.40;;;11.20;99.90;10.70;101101.00;;;;5097318;28;20180;-70
2022/03/13 01:16:23;;;;;;;0.20;0.20;;;11.20;99.90;10.80;101137.00;;;;5113804;28;20620;-70
2022/03/13 01:18:56;;;;;;;0.60;0.60;;;11.30;99.90;10.70;101128.00;;;;5096461;28;20626;-70
2022/03/13 01:21:23;;;;;;;0.43;0.43;;;11.20;99.90;10.80;101121.00;;;;5096695;28;20188;-70
2022/03/13 01:23:57;;;;;;;0.73;0.73;;;11.30;99.90;10.80;101134.00;;;;5113427;28;20176;-71
2022/03/13 01:26:25;;;;;;;0.50;0.50;;;11.30;99.90;10.80;101137.00;;;;5113408;28;20323;-71
2022/03/13 01:29:03;;;;;;;0.67;0.67;;;11.30;99.90;10.70;101137.00;;;;5113355;28;20188;-71
2022/03/13 01:31:32;;;;;;;0.77;0.77;;;11.30;99.90;10.80;101123.00;;;;5113431;28;20204;-71
2022/03/13 01:34:00;;;;;;;1.10;1.00;;;11.20;99.90;10.70;101117.00;;;;5096476;28;20180;-71
2022/03/13 01:36:27;;;;;;;0.90;0.90;;;11.20;99.90;10.80;101128.00;;;;5096048;28;20182;-70
2022/03/13 01:39:01;;;;;;;1.43;1.33;;;11.30;99.90;10.70;101112.00;;;;5113379;28;20180;-70
2022/03/13 01:41:35;;;;;;;1.20;1.10;;;11.20;99.90;10.80;101085.00;;;;5096411;28;20188;-71
2022/03/13 01:44:05;;;;;;;0.90;0.90;;;11.30;99.90;10.80;101115.00;;;;5114636;28;20575;-70
2022/03/13 01:46:31;;;;;;;0.83;0.83;;;11.30;99.90;10.60;101109.00;;;;5114577;28;20181;-70
2022/03/13 01:49:08;;;;;;;1.13;0.90;;;11.30;99.90;10.60;101105.00;;;;5096005;28;20188;-70
2022/03/13 01:51:38;;;;;;;0.67;0.67;;;11.30;99.90;10.80;101113.00;;;;5112874;28;20196;-71
2022/03/13 01:54:12;;;;;;;1.50;1.40;;;11.30;99.90;10.60;101056.00;;;;5113090;28;20284;-71
2022/03/13 01:56:39;;;;;;;4.10;0.60;;;11.20;99.90;10.60;101110.00;;;;5113042;28;20168;-72
2022/03/13 01:59:10;;;;;;;1.37;1.27;;;11.30;99.90;10.90;101109.00;;;;5112971;28;20797;-71
2022/03/13 02:01:38;;;;;;;1.43;1.33;;;11.30;99.90;10.70;101103.00;;;;5114012;28;20181;-72
2022/03/13 02:04:05;;;;;;;1.43;1.10;;;11.30;99.90;10.60;101105.00;;;;5095911;28;20204;-71
2022/03/13 02:06:33;;;;;;;1.27;1.27;;;11.20;99.90;10.80;101087.00;;;;5112349;28;20176;-71
2022/03/13 02:09:00;;;;;;;1.60;0.83;;;11.30;99.90;10.70;101081.00;;;;5113458;28;20635;-71
2022/03/13 02:11:36;;;;;;;0.80;0.73;;;11.20;99.90;10.70;101090.00;;;;5112503;28;20200;-71
2022/03/13 02:14:08;;;;;;;2.93;1.73;;;11.20;99.90;10.50;101076.00;;;;5097030;28;20179;-71
2022/03/13 02:16:34;;;;;;;1.27;0.93;;;11.20;99.90;10.40;101080.00;;;;5112678;28;20168;-71
2022/03/13 02:19:06;;;;;;;1.50;0.90;;;11.10;99.90;10.50;101081.00;;;;5095795;28;20229;-71
2022/03/13 02:21:42;;;;;;;2.40;1.17;;;11.10;99.90;10.60;101083.00;;;;5112649;28;20171;-71
2022/03/13 02:24:15;;;;;;;3.90;1.73;;;11.20;99.90;10.30;101075.00;;;;5113027;28;20175;-71
2022/03/13 02:26:44;;;;;;;0.60;0.60;;;11.10;99.90;10.40;101078.00;;;;5112684;28;20313;-71
2022/03/13 02:29:15;;;;;;;2.80;2.60;;;11.10;99.90;10.70;101081.00;;;;5112357;28;20631;-72
2022/03/13 02:31:42;;;;;;;0.57;0.40;;;11.20;99.90;10.40;101074.00;;;;5095095;28;20209;-71
2022/03/13 02:34:12;;;;;;;0.77;0.77;;;11.10;99.90;10.30;101073.00;;;;5095723;28;20186;-71
2022/03/13 02:36:52;;;;;;;0.60;0.60;;;11.00;99.90;10.40;101065.00;;;;5095289;28;20270;-71
2022/03/13 02:39:24;;;;;;;3.80;1.67;;;11.00;99.90;10.30;101075.00;;;;5095422;28;20187;-71
2022/03/13 02:41:55;;;;;;;1.27;1.17;;;11.00;99.90;10.20;101071.00;;;;5095327;28;20215;-71
2022/03/13 02:44:26;;;;;;;1.07;0.97;;;11.00;99.90;10.20;101031.00;;;;5095681;28;20515;-70
2022/03/13 02:47:00;;;;;;;0.70;0.70;;;10.90;99.90;10.20;101027.00;;;;5096242;28;20207;-71
2022/03/13 02:49:28;;;;;;;1.73;1.27;;;10.90;99.90;10.20;101046.00;;;;5095332;28;20185;-71
2022/03/13 02:52:05;;;;;;;2.33;1.30;;;10.90;99.90;10.20;101065.00;;;;5112342;28;20191;-71
2022/03/13 02:54:34;;;;;;;0.83;0.83;;;10.90;99.90;10.20;101058.00;;;;5112464;28;20262;-71
2022/03/13 02:57:01;;;;;;;1.70;0.97;;;10.90;99.90;10.20;101050.00;;;;5112223;28;20211;-70
2022/03/13 02:59:35;;;;;;;1.53;1.40;;;10.90;99.90;10.20;101040.00;;;;5095261;28;20552;-71
2022/03/13 03:02:02;;;;;;;2.57;0.97;;;10.80;99.90;10.20;101045.00;;;;5094936;28;20190;-71
2022/03/13 03:04:30;;;;;;;0.97;0.97;;;10.80;99.90;10.10;101046.00;;;;5111999;28;20179;-72
2022/03/13 03:07:02;;;;;;;2.43;2.27;;;10.80;99.90;10.10;101005.00;;;;5112266;28;20186;-71
2022/03/13 03:09:31;;;;;;;1.00;0.90;;;10.80;99.90;10.10;101052.00;;;;5095459;28;20176;-69
2022/03/13 03:12:04;;;;;;;0.77;0.70;;;10.80;99.90;10.10;101043.00;;;;5113291;28;20215;-69
2022/03/13 03:14:34;;;;;;;0.90;0.60;;;10.80;99.90;10.20;101047.00;;;;5112326;28;20263;-70
2022/03/13 03:17:00;;;;;;;0.77;0.77;;;10.80;99.90;10.10;101043.00;;;;5112082;28;20181;-69
2022/03/13 03:19:29;;;;;;;1.30;1.20;;;10.80;99.90;10.30;101045.00;;;;5097488;28;20198;-70
2022/03/13 03:21:56;;;;;;;0.67;0.67;;;10.80;99.90;10.10;101036.00;;;;5099107;28;20194;-71
2022/03/13 03:24:26;;;;;;;0.57;0.50;;;10.80;99.90;10.10;101045.00;;;;5116086;28;20187;-71
2022/03/13 03:26:53;;;;;;;1.90;1.70;;;10.80;99.90;9.90;101038.00;;;;5098855;28;20189;-71
2022/03/13 03:29:20;;;;;;;3.07;2.80;;;10.80;99.90;10.00;101035.00;;;;5115870;28;20200;-72
2022/03/13 03:31:52;;;;;;;1.83;1.33;;;10.70;99.90;10.20;101031.00;;;;5115501;28;20294;-71
2022/03/13 03:34:22;;;;;;;10.40;6.43;;;10.80;99.90;10.10;101038.00;;;;5098887;28;20190;-71
2022/03/13 03:36:55;;;;;;;0.50;0.50;;;10.80;99.90;10.30;100996.00;;;;5115839;28;20231;-71
2022/03/13 03:39:30;;;;;;;0.40;0.40;;;10.80;99.90;10.10;101036.00;;;;5115588;28;20184;-71
2022/03/13 03:42:03;;;;;;;0.97;0.97;;;10.80;99.90;10.40;101037.00;;;;5115633;28;20320;-72
2022/03/13 03:44:29;;;;;;;1.20;0.70;;;10.80;99.90;10.40;101023.00;;;;5098874;28;20176;-72
2022/03/13 03:46:55;;;;;;;0.83;0.83;;;10.90;99.90;10.30;101026.00;;;;5098430;28;20195;-71
2022/03/13 03:49:23;;;;;;;3.00;1.00;;;10.90;99.90;10.40;101027.00;;;;5098350;28;20627;-71
2022/03/13 03:51:52;;;;;;;2.27;1.33;;;10.90;99.90;10.40;101023.00;;;;5116897;28;20200;-72
2022/03/13 03:54:19;;;;;;;0.63;0.63;;;11.00;99.90;10.40;101010.00;;;;5115623;28;20176;-71
2022/03/13 03:56:45;;;;;;;1.60;1.50;;;11.00;99.90;10.40;100985.00;;;;5115731;28;20180;-72
2022/03/13 03:59:16;;;;;;;2.40;2.00;;;10.90;99.90;10.10;101025.00;;;;5098099;28;20270;-71
2022/03/13 04:01:47;;;;;;;2.90;1.20;;;10.90;99.90;10.20;101018.00;;;;5098602;28;20180;-71
2022/03/13 04:04:16;;;;;;;1.27;0.70;;;10.80;99.90;10.30;101011.00;;;;5098467;28;20222;-71
2022/03/13 04:06:44;;;;;;;1.27;1.17;;;10.80;99.90;10.50;101015.00;;;;5115248;28;20196;-72
2022/03/13 04:09:12;;;;;;;1.07;0.97;;;10.90;99.90;10.30;101017.00;;;;5115207;28;20178;-72
2022/03/13 04:11:40;;;;;;;0.43;0.43;;;10.90;99.90;10.30;101029.00;;;;5097954;28;20703;-71
2022/03/13 04:14:09;;;;;;;1.27;0.97;;;10.90;99.90;10.30;101021.00;;;;5116322;28;20177;-71
2022/03/13 04:16:37;;;;;;;2.07;1.77;;;10.90;99.90;10.40;101019.00;;;;5114988;28;20203;-72
2022/03/13 04:19:03;;;;;;;1.40;1.30;;;11.00;99.90;10.40;101015.00;;;;5114835;28;20189;-70
2022/03/13 04:21:29;;;;;;;0.60;0.60;;;11.00;99.90;10.30;101016.00;;;;5114943;28;20567;-72
2022/03/13 04:23:58;;;;;;;2.40;2.23;;;10.90;99.90;10.40;101012.00;;;;5097795;28;20202;-72
2022/03/13 04:26:26;;;;;;;1.57;1.47;;;11.00;99.90;10.20;101002.00;;;;5098123;28;20184;-72
2022/03/13 04:28:52;;;;;;;0.97;0.93;;;10.90;99.90;10.30;100965.00;;;;5097726;28;20291;-71
2022/03/13 04:31:24;;;;;;;3.10;2.73;;;10.90;99.90;10.30;100985.00;;;;5113994;28;20205;-72
2022/03/13 04:33:51;;;;;;;3.10;1.57;;;10.90;99.90;10.20;101011.00;;;;5114741;28;20275;-71
2022/03/13 04:36:22;;;;;;;0.93;0.93;;;10.90;99.90;10.40;101010.00;;;;5114565;28;20176;-71
2022/03/13 04:38:51;;;;;;;3.67;1.37;;;10.90;99.90;10.20;101009.00;;;;5097601;28;20596;-71
2022/03/13 04:41:18;;;;;;;3.13;1.63;;;10.90;99.90;10.30;100998.00;;;;5114574;28;20255;-71
2022/03/13 04:43:44;;;;;;;1.90;1.70;;;10.80;99.90;10.30;100996.00;;;;5097429;28;20635;-71
2022/03/13 04:46:15;;;;;;;2.20;1.73;;;10.90;99.90;10.40;101002.00;;;;5114142;28;20313;-71
2022/03/13 04:48:43;;;;;;;1.13;1.03;;;10.90;99.90;10.40;100992.00;;;;5114419;28;20191;-72
2022/03/13 04:51:14;;;;;;;1.23;0.70;;;10.90;99.90;10.40;101004.00;;;;5113967;28;20540;-71
2022/03/13 04:53:42;;;;;;;3.50;2.47;;;10.90;99.90;10.40;100995.00;;;;5097262;28;20536;-71
2022/03/13 04:56:09;;;;;;;1.47;1.37;;;10.90;99.90;10.40;100971.00;;;;5114172;28;20194;-71
2022/03/13 04:58:37;;;;;;;2.00;1.53;;;10.90;99.90;10.30;100995.00;;;;5114423;28;20183;-71
2022/03/13 05:01:05;;;;;;;2.33;1.57;;;10.90;99.90;10.50;100982.00;;;;5113666;28;20184;-71
2022/03/13 05:03:34;;;;;;;1.13;0.90;;;11.00;99.90;10.30;100946.00;;;;5114149;28;20267;-71
2022/03/13 05:06:03;;;;;;;2.20;1.27;;;10.90;99.90;10.30;100990.00;;;;5114067;28;20642;-71
2022/03/13 05:08:34;;;;;;;1.70;1.30;;;10.80;99.90;10.30;100984.00;;;;5113993;28;20208;-72
2022/03/13 05:11:03;;;;;;;0.47;0.47;;;10.80;99.90;10.10;100971.00;;;;5114020;28;20172;-72
2022/03/13 05:13:31;;;;;;;0.50;0.50;;;10.70;99.90;10.30;100970.00;;;;5113694;28;20173;-72
2022/03/13 05:16:00;;;;;;;1.90;1.50;;;10.80;99.90;10.50;100933.00;;;;5113547;28;20183;-72
2022/03/13 05:18:26;;;;;;;0.30;0.30;;;10.90;99.90;10.40;100978.00;;;;5096615;28;20279;-72
2022/03/13 05:20:55;;;;;;;1.37;1.27;;;10.80;99.90;10.30;100973.00;;;;5113894;28;20169;-72
2022/03/13 05:23:26;;;;;;;1.20;1.00;;;10.80;99.90;10.20;100963.00;;;;5113818;28;20611;-72
2022/03/13 05:25:55;;;;;;;1.53;1.23;;;10.70;99.90;10.40;100969.00;;;;5114035;28;20251;-72
2022/03/13 05:28:23;;;;;;;1.73;1.10;;;10.70;99.90;10.20;100928.00;;;;5096293;28;20186;-72
2022/03/13 05:30:51;;;;;;;0.40;0.40;;;10.70;99.90;10.10;100960.00;;;;5113342;28;20616;-72
2022/03/13 05:33:22;;;;;;;0.97;0.97;;;10.60;99.90;10.30;100963.00;;;;5113475;28;20237;-72
2022/03/13 05:35:55;;;;;;;0.67;0.67;;;10.60;99.90;10.10;100963.00;;;;5113431;28;20171;-72
2022/03/13 05:38:25;;;;;;;1.30;0.97;;;10.50;99.90;9.90;100966.00;;;;5113305;28;20179;-72
2022/03/13 05:40:54;;;;;;;0.93;0.93;;;10.50;99.90;9.80;100928.00;;;;5112669;28;20629;-72
2022/03/13 05:43:22;;;;;;;0.93;0.90;;;10.40;99.90;9.90;100970.00;;;;5096319;28;20183;-72
2022/03/13 05:45:51;;;;;;;0.97;0.97;;;10.40;99.90;10.10;100960.00;;;;5113531;28;20177;-72
2022/03/13 05:48:23;;;;;;;0.40;0.40;;;10.40;99.90;9.80;100935.00;;;;5096375;28;20184;-71
2022/03/13 05:50:49;;;;;;;0.70;0.70;;;10.30;99.90;9.80;100966.00;;;;5113257;28;20628;-71
2022/03/13 05:53:16;;;;;;;1.80;0.60;;;10.30;99.90;9.70;100970.00;;;;5096005;28;20216;-71
2022/03/13 05:55:46;;;;;;;0.80;0.80;;;10.20;99.90;9.80;100969.00;;;;5112918;28;20175;-71
2022/03/13 05:58:13;;;;;;;2.73;0.73;;;10.20;99.90;9.70;100982.00;;;;5113369;28;20175;-71
2022/03/13 06:00:41;;;;;;;1.53;1.43;;;10.10;99.90;9.80;100981.00;;;;5096073;28;20584;-71
2022/03/13 06:03:10;;;;;;;1.83;1.73;;;10.20;99.90;10.00;100996.00;;;;5112987;28;20193;-72
2022/03/13 06:05:39;;;;;;;0.80;0.80;;;10.30;99.90;9.90;100989.00;;;;5113954;28;20184;-71
2022/03/13 06:08:07;;;;;;;3.10;1.53;;;10.40;99.90;9.90;100995.00;;;;5112885;28;20700;-71
2022/03/13 06:10:33;;;;;;;2.00;1.03;;;10.30;99.90;9.80;100995.00;;;;5112533;28;20179;-72
2022/03/13 06:13:04;;;;;;;2.70;2.23;;;10.30;99.90;9.90;100994.00;;;;5112897;28;20250;-71
2022/03/13 06:15:38;;;;;;;1.23;1.13;;;10.30;99.90;9.90;101001.00;;;;5112710;28;20265;-71
2022/03/13 06:18:11;;;;;;;0.73;0.73;;;10.30;99.90;10.00;101004.00;;;;5112946;28;20190;-71
2022/03/13 06:20:39;;;;;;;2.50;1.43;;;10.30;99.90;10.00;100993.00;;;;5112581;28;20541;-71
2022/03/13 06:23:12;;;;;;;2.50;0.83;;;10.40;99.90;10.30;101003.00;;;;5096029;28;20250;-71
2022/03/13 06:25:38;;;;;;;1.17;0.90;;;10.50;99.90;10.00;101006.00;;;;5112711;28;20179;-71
2022/03/13 06:28:07;;;;;;;0.77;0.77;;;10.40;99.90;10.10;100984.00;;;;5095485;28;20232;-72
2022/03/13 06:30:35;;;;;;;1.67;1.57;;;10.40;99.90;9.80;101000.00;;;;5095888;28;20220;-71
2022/03/13 06:33:03;;;;;;;0.93;0.87;;;10.40;99.90;10.00;101014.00;;;;5095458;28;20212;-72
2022/03/13 06:35:33;;;;;;;2.40;1.67;;;10.40;99.90;10.00;101003.00;;;;5112412;28;20309;-71
2022/03/13 06:37:59;;;;;;;1.77;1.57;;;10.40;99.90;10.20;101000.00;;;;5112736;28;20178;-71
2022/03/13 06:40:26;;;;;;;1.57;1.47;;;10.50;99.90;10.40;100959.00;;;;5095378;28;20182;-71
2022/03/13 06:42:55;;;;;;;1.13;1.13;;;10.60;99.90;10.20;100997.00;;;;5112343;28;20650;-71
2022/03/13 06:45:25;;;;;;;1.57;1.30;;;10.60;99.90;10.40;101001.00;;;;5112845;28;20184;-71
2022/03/13 06:47:53;;;;;;;1.03;1.00;;;10.70;99.90;10.10;100994.00;;;;5112426;28;20201;-71
2022/03/13 06:50:23;;;;;;;0.73;0.50;;;10.70;99.90;10.20;100995.00;;;;5095634;28;20240;-71
2022/03/13 06:52:53;;;;;;;1.70;1.60;;;10.60;99.90;10.10;100965.00;;;;5112493;28;20716;-71
2022/03/13 06:55:25;;;;;;;1.73;1.63;;;10.60;99.90;9.90;100995.00;;;;5117359;28;20177;-71
2022/03/13 06:57:52;;;;;;;0.60;0.60;;;10.50;99.90;10.00;100998.00;;;;5116723;28;20722;-71
2022/03/13 07:00:19;;;;;;;2.03;1.90;;;10.50;99.90;10.10;101002.00;;;;5099222;28;20180;-71
2022/03/13 07:02:45;;;;;;;0.83;0.83;;;10.60;99.90;10.30;101007.00;;;;5116716;28;20182;-72
2022/03/13 07:05:36;;;;;;;6.23;3.37;;;10.70;99.90;10.40;101010.00;;;;5116488;28;20225;-71
2022/03/13 07:08:02;;;;;;;1.10;1.00;;;10.90;99.90;10.80;100956.00;;;;5099062;28;20208;-72
2022/03/13 07:10:34;;;;;;;2.60;2.40;;;11.00;99.90;11.00;100990.00;;;;5098846;28;20583;-71
2022/03/13 07:12:59;;;;;;;4.50;3.40;;;11.30;99.90;10.70;100994.00;;;;5117285;28;20551;-72
2022/03/13 07:15:31;;;;;;;2.83;2.10;;;11.30;99.90;10.90;101002.00;;;;5116229;28;20185;-72
2022/03/13 07:18:00;;;;;;;5.07;1.47;;;11.40;99.90;10.80;101011.00;;;;5099333;28;20182;-72
2022/03/13 07:20:26;;;;;;;4.37;2.87;;;11.40;99.90;11.20;101013.00;;;;5116045;28;20179;-71
2022/03/13 07:22:55;;;;;;;2.13;2.03;;;11.60;99.90;12.30;101013.00;;;;5115971;28;20544;-72
2022/03/13 07:25:26;;;;;;;1.57;1.47;;;12.20;99.90;11.80;101001.00;;;;5098578;28;20178;-71
2022/03/13 07:27:55;;;;;;;1.40;1.27;;;12.20;99.90;11.70;101021.00;;;;5116298;28;20174;-72
2022/03/13 07:30:21;;;;;;;1.77;1.47;;;12.20;99.90;11.90;100981.00;;;;5117137;28;20175;-71
2022/03/13 07:33:53;;;;;;;1.13;1.13;;;12.20;99.90;11.50;101026.00;;;;5115628;28;20218;-71
2022/03/13 07:36:25;;;;;;;3.00;1.90;;;12.10;99.90;12.50;101031.00;;;;5082593;28;20195;-71
2022/03/13 07:38:51;;;;;;;1.53;1.30;;;12.50;99.90;12.50;101025.00;;;;5116790;28;20173;-71
2022/03/13 07:41:19;;;;;;;1.43;1.40;;;12.70;99.90;13.20;101058.00;;;;5116978;28;20614;-71
2022/03/13 07:43:48;;;;;;;1.30;1.20;;;13.00;99.90;12.90;101016.00;;;;5098571;28;20186;-72
2022/03/13 07:46:19;;;;;;;0.60;0.60;;;12.90;99.90;12.90;101064.00;;;;5098385;28;20180;-72
2022/03/13 07:48:48;;;;;;;2.20;1.97;;;13.10;99.90;13.30;101055.00;;;;5115638;28;20207;-71
2022/03/13 07:51:19;;;;;;;3.03;2.60;;;13.30;99.90;13.40;101065.00;;;;5115365;28;20624;-72
2022/03/13 07:54:22;;;;;;;0.83;0.83;;;13.50;99.90;13.20;101061.00;;;;5098896;28;20644;-71
2022/03/13 07:56:48;;;;;;;3.37;1.80;;;13.60;99.90;13.40;101072.00;;;;5098450;28;20187;-70
2022/03/13 07:59:13;;;;;;;5.57;2.50;;;13.60;99.90;13.40;101079.00;;;;5115116;28;20177;-71
2022/03/13 08:01:42;;;;;;;3.83;3.07;;;13.60;99.90;12.20;101054.00;;;;5116524;28;20190;-71
2022/03/13 08:04:10;;;;;;;0.20;0.20;;;13.00;99.90;12.60;101050.00;;;;5097922;28;20270;-71
2022/03/13 08:06:37;;;;;;;1.53;1.43;;;12.90;99.90;13.70;101077.00;;;;5115422;28;20176;-71
2022/03/13 08:09:07;;;;;;;3.50;1.70;;;13.50;99.90;13.30;101076.00;;;;5114680;28;20188;-72
2022/03/13 08:11:38;;;;;;;1.73;1.03;;;13.60;99.90;13.20;101091.00;;;;5115372;28;20188;-71
2022/03/13 08:14:07;;;;;;;3.23;1.90;;;13.60;99.90;13.40;101072.00;;;;5114946;28;20184;-70
2022/03/13 08:16:38;;;;;;;1.57;1.47;;;13.50;99.90;13.60;101061.00;;;;5115090;28;20187;-71
2022/03/13 08:19:06;;;;;;;4.37;2.57;;;13.80;99.90;14.20;101086.00;;;;5114934;28;20184;-69
2022/03/13 08:21:32;;;;;;;3.60;2.70;;;14.00;99.90;13.30;101075.00;;;;5115111;28;20197;-72
2022/03/13 08:23:58;;;;;;;1.90;1.80;;;13.90;99.90;14.40;101090.00;;;;5115729;28;20180;-71
2022/03/13 08:26:27;;;;;;;2.03;1.23;;;14.20;99.90;13.60;101083.00;;;;5098025;28;20179;-72
2022/03/13 08:29:00;;;;;;;0.60;0.60;;;14.20;99.90;14.10;101055.00;;;;5115802;28;20181;-71
2022/03/13 08:31:30;;;;;;;6.80;5.13;;;14.20;99.90;14.60;101109.00;;;;5114336;28;20180;-71
2022/03/13 08:34:01;;;;;;;1.93;1.00;;;14.50;99.90;14.50;101121.00;;;;5114521;28;20380;-71
2022/03/13 08:36:30;;;;;;;2.50;2.30;;;14.60;99.90;13.60;101107.00;;;;5114750;28;20178;-70
2022/03/13 08:39:04;;;;;;;5.97;3.23;;;14.10;99.90;14.00;101114.00;;;;5097635;28;20225;-70
2022/03/13 08:41:31;;;;;;;3.47;2.50;;;14.20;99.90;14.30;101109.00;;;;5114353;28;20205;-70
2022/03/13 08:43:57;;;;;;;2.73;2.20;;;14.40;99.90;14.10;101128.00;;;;5095004;28;20586;-70
2022/03/13 08:46:23;;;;;;;1.73;1.40;;;14.40;99.90;14.20;101128.00;;;;5097247;28;20265;-69
2022/03/13 08:48:49;;;;;;;1.67;1.57;;;14.50;99.90;14.10;101130.00;;;;5114253;28;20190;-70
2022/03/13 08:51:23;;;;;;;1.50;1.07;;;14.50;99.90;14.60;101141.00;;;;5097292;28;20539;-70
2022/03/13 08:53:50;;;;;;;1.20;1.10;;;14.60;99.90;15.00;101128.00;;;;5114378;28;20171;-70
2022/03/13 08:56:21;;;;;;;2.23;2.13;;;14.80;99.90;16.00;101150.00;;;;5114351;28;20194;-71
2022/03/13 08:58:53;;;;;;;1.00;1.00;;;15.60;99.90;15.00;101152.00;;;;5114197;28;20237;-70
2022/03/13 09:01:22;;;;;;;0.57;0.57;;;15.40;99.90;15.20;101143.00;;;;5114106;28;20180;-70
2022/03/13 09:03:50;;;;;;;1.20;1.13;;;15.40;99.90;15.10;101151.00;;;;5097673;28;20230;-70
2022/03/13 09:06:18;;;;;;;1.27;1.17;;;15.40;99.90;14.60;101143.00;;;;5113867;28;20578;-70
2022/03/13 09:08:47;;;;;;;0.63;0.63;;;15.10;99.90;14.70;101132.00;;;;5114054;28;20704;-70
2022/03/13 09:11:18;;;;;;;1.07;0.93;;;14.90;99.90;15.60;101142.00;;;;5114040;28;20176;-70
2022/03/13 09:13:45;;;;;;;1.17;0.93;;;15.30;99.90;15.30;101153.00;;;;5097303;28;20291;-70
2022/03/13 09:16:16;;;;;;;3.87;1.97;;;15.50;99.90;15.10;101159.00;;;;5096003;28;20188;-70
2022/03/13 09:18:47;;;;;;;2.53;1.57;;;15.40;99.90;15.80;101147.00;;;;5096955;28;20179;-70
2022/03/13 09:21:18;;;;;;;1.50;0.83;;;15.50;99.90;15.30;101118.00;;;;5096826;28;20176;-70
2022/03/13 09:23:46;;;;;;;0.67;0.67;;;15.50;99.90;15.20;101161.00;;;;5097022;28;20618;-70
2022/03/13 09:26:15;;;;;;;2.93;2.73;;;15.50;99.90;15.80;101163.00;;;;5096802;28;20217;-70
2022/03/13 09:28:46;;;;;;;3.23;1.93;;;15.70;99.90;15.60;101159.00;;;;5114958;28;20679;-70
2022/03/13 09:31:16;;;;;;;0.37;0.37;;;15.70;99.90;15.90;101139.00;;;;5113117;28;20170;-70
2022/03/13 09:33:42;;;;;;;2.13;1.60;;;15.90;99.90;16.30;101154.00;;;;5096409;28;20278;-70
2022/03/13 09:36:13;;;;;;;2.10;1.60;;;16.10;99.90;16.40;101137.00;;;;5113142;28;20260;-70
2022/03/13 09:38:39;;;;;;;2.90;2.07;;;16.30;99.90;16.10;101171.00;;;;5114541;28;20178;-71
2022/03/13 09:41:13;;;;;;;0.87;0.87;;;16.10;99.90;16.30;101166.00;;;;5096639;28;20240;-70
2022/03/13 09:43:40;;;;;;;2.77;2.33;;;16.30;99.90;15.80;101165.00;;;;5096626;28;20175;-70
2022/03/13 09:46:06;;;;;;;2.67;2.47;;;16.00;99.90;15.30;101154.00;;;;5113308;28;20206;-70
2022/03/13 09:48:36;;;;;;;1.40;1.40;;;15.70;99.90;16.00;101149.00;;;;5096390;28;20172;-70
2022/03/13 09:51:07;;;;;;;0.10;0.10;;;15.80;99.90;15.80;101137.00;;;;5112789;28;20180;-70
2022/03/13 09:53:41;;;;;;;1.80;0.87;;;16.00;99.90;15.80;101150.00;;;;5113400;28;20221;-71
2022/03/13 09:56:09;;;;;;;1.23;1.13;;;16.00;99.90;17.00;101151.00;;;;5096473;28;20196;-71
2022/03/13 09:58:42;;;;;;;3.77;2.00;;;16.50;99.90;16.50;101157.00;;;;5113150;28;20215;-70
2022/03/13 10:01:12;;;;;;;0.30;0.30;;;16.80;99.90;16.30;101155.00;;;;5112790;28;20191;-70
2022/03/13 10:03:39;;;;;;;1.23;1.13;;;16.30;99.90;16.60;101146.00;;;;5096227;28;20177;-71
2022/03/13 10:06:08;;;;;;;0.50;0.50;;;16.70;99.90;16.40;101153.00;;;;5095842;28;20177;-71
2022/03/13 10:08:40;;;;;;;1.90;1.17;;;16.50;99.90;16.70;101158.00;;;;5113035;28;20197;-70
2022/03/13 10:11:07;;;;;;;0.60;0.60;;;16.60;99.90;16.70;101155.00;;;;5112860;28;20173;-70
2022/03/13 10:13:46;;;;;;;0.73;0.73;;;16.70;99.90;16.40;101157.00;;;;5095914;28;20213;-71
2022/03/13 10:16:34;;;;;;;0.50;0.50;;;16.70;99.90;15.90;101162.00;;;;5112741;28;20260;-72
2022/03/13 10:19:22;;;;;;;1.83;1.27;;;16.30;99.90;16.10;101144.00;;;;5112433;28;20181;-71
2022/03/13 10:33:13;;;;;;;1.03;0.80;;;16.40;99.90;16.20;101176.00;;;;5113619;27;1307696;-71
2022/03/13 10:35:40;;;;;;;1.00;0.70;;;16.50;99.90;16.40;101168.00;;;;5131084;28;20183;-71
2022/03/13 10:38:20;;;;;;;2.87;2.10;;;16.60;99.90;16.00;101118.00;;;;5113341;28;20595;-71
2022/03/13 10:40:55;;;;;;;1.60;1.23;;;16.50;99.90;15.90;101159.00;;;;5113053;28;20676;-71
2022/03/13 10:43:26;;;;;;;1.90;0.97;;;16.30;99.90;17.10;101170.00;;;;5131384;27;20241;-71
2022/03/13 10:45:55;;;;;;;0.90;0.67;;;16.70;99.90;17.60;101175.00;;;;5130490;28;20229;-71
2022/03/13 10:48:32;;;;;;;2.80;2.60;;;17.30;99.90;17.10;101173.00;;;;5129940;28;20601;-71
2022/03/13 10:51:07;;;;;;;1.70;1.00;;;17.40;99.90;17.30;101180.00;;;;5113752;28;20636;-71
2022/03/13 10:53:38;;;;;;;0.40;0.40;;;17.20;99.90;17.10;101181.00;;;;5130168;28;20599;-71
2022/03/13 10:56:15;;;;;;;2.20;1.20;;;17.10;99.90;17.00;101184.00;;;;5130357;28;20163;-71
2022/03/13 10:58:48;;;;;;;0.60;0.60;;;17.10;99.90;17.30;101179.00;;;;5113060;28;20268;-71
2022/03/13 11:01:16;;;;;;;0.77;0.77;;;17.30;99.90;17.10;101185.00;;;;5113940;28;20186;-72
2022/03/13 11:04:07;;;;;;;1.50;1.30;;;17.10;99.90;17.30;101173.00;;;;5129456;28;20190;-71
2022/03/13 11:07:37;;;;;;;0.47;0.47;;;17.10;99.90;17.20;101180.00;;;;5113151;28;20173;-70
2022/03/13 11:10:06;;;;;;;0.30;0.30;;;17.30;99.90;16.80;101176.00;;;;5112770;28;20189;-71
2022/03/13 11:12:35;;;;;;;0.63;0.63;;;16.90;99.90;16.50;101166.00;;;;5130915;27;20743;-71